»·PEaware :: UAL2460 KDEN-KEGE

UAL2460 :: KDEN-KEGE

FLIGHT INFORMATION

Flight Status: Arrived
Operator:
United Airlines
More flights by this operator :: More flights under this callsign
Pilot: Max W. (2591)
Aircraft: BOEING 737-900
(B739)
More flights by this aircraft type
Origin: KDEN Denver Intl
United States
Destination: KEGE Eagle Co Regl
United States
More flights between these airports :: More routes between these airports
Route: FOOOT4 RLG
File this flight plan on PilotEdge
Remarks:
Altitude:
(Current/Filed)
22,000ft
Speed:
(Current/Filed)
450kts
Departed: 07-Nov-19 07:57 PM
Arrived: 07-Nov-19 08:24 PM
Distance/Time
Traveled:
105nm/0:27
Distance/Time
To Go:
Arrived

Flight Plot

Page will automatically refresh every two minutes.

Flight plan parsing failed; only flown route is shown


Map Options




Map Legend


Flown Route
Filed Route
Departure Airport
Arrival Airport
Navaid (VOR, NDB)
Fix

Horizontal Profiles

Position Reports

Time Latitude Longitude Heading Altitude Ground
Speed
07-Nov-19 19:18 39.859378 -104.674750 206 5439ft 0kts
07-Nov-19 19:19 39.859378 -104.674750 206 5439ft 0kts
07-Nov-19 19:20 39.859378 -104.674750 206 5439ft 0kts
07-Nov-19 19:21 39.859378 -104.674750 206 5439ft 0kts
07-Nov-19 19:22 39.859378 -104.674750 206 5439ft 0kts
07-Nov-19 19:23 39.859378 -104.674750 206 5439ft 0kts
07-Nov-19 19:24 39.859378 -104.674750 206 5439ft 0kts
07-Nov-19 19:25 39.859378 -104.674750 206 5439ft 0kts
07-Nov-19 19:26 39.859378 -104.674750 206 5439ft 0kts
07-Nov-19 19:27 39.859378 -104.674750 206 5439ft 0kts
07-Nov-19 19:28 39.859378 -104.674750 206 5439ft 0kts
07-Nov-19 19:29 39.859378 -104.674750 206 5439ft 0kts
07-Nov-19 19:30 39.859378 -104.674750 206 5438ft 0kts
07-Nov-19 19:31 39.859378 -104.674750 206 5438ft 0kts
07-Nov-19 19:32 39.859378 -104.674750 206 5439ft 0kts
07-Nov-19 19:33 39.859378 -104.674750 206 5439ft 0kts
07-Nov-19 19:34 39.859378 -104.674750 206 5439ft 0kts
07-Nov-19 19:35 39.859378 -104.674750 206 5439ft 0kts
07-Nov-19 19:36 39.859378 -104.674750 206 5439ft 0kts
07-Nov-19 19:37 39.859378 -104.674750 206 5439ft 0kts
07-Nov-19 19:38 39.859378 -104.674750 206 5439ft 0kts
07-Nov-19 19:39 39.859378 -104.674750 206 5439ft 0kts
07-Nov-19 19:40 39.859378 -104.674750 206 5439ft 0kts
07-Nov-19 19:41 39.859413 -104.674727 206 5439ft 1kts
07-Nov-19 19:42 39.860100 -104.674277 206 5439ft 2kts
07-Nov-19 19:43 39.860204 -104.674209 206 5439ft 0kts
07-Nov-19 19:44 39.860203 -104.674209 206 5439ft 0kts
07-Nov-19 19:45 39.860127 -104.674652 274 5439ft 9kts
07-Nov-19 19:46 39.860285 -104.677658 277 5439ft 10kts
07-Nov-19 19:47 39.860357 -104.683279 270 5439ft 17kts
07-Nov-19 19:48 39.856432 -104.683972 179 5439ft 19kts
07-Nov-19 19:49 39.852816 -104.684026 180 5439ft 8kts
07-Nov-19 19:50 39.850082 -104.684041 175 5439ft 23kts
07-Nov-19 19:51 39.844042 -104.684163 180 5439ft 24kts
07-Nov-19 19:52 39.842061 -104.684199 179 5439ft 0kts
07-Nov-19 19:53 39.841886 -104.684189 178 5439ft 0kts
07-Nov-19 19:54 39.840683 -104.684448 255 5439ft 9kts
07-Nov-19 19:55 39.840661 -104.685008 271 5439ft 0kts
07-Nov-19 19:56 39.840741 -104.692804 269 5439ft 101kts
07-Nov-19 19:57 39.840503 -104.756241 278 7183ft 190kts
07-Nov-19 19:58 39.870079 -104.820398 305 9086ft 235kts
07-Nov-19 19:59 39.910616 -104.899711 299 11132ft 290kts
07-Nov-19 20:00 39.947711 -104.996991 289 13320ft 328kts
07-Nov-19 20:01 39.962672 -105.116135 276 16348ft 333kts
07-Nov-19 20:02 39.977188 -105.242961 282 18248ft 362kts
07-Nov-19 20:03 39.984319 -105.376328 270 20745ft 370kts
07-Nov-19 20:04 39.979663 -105.509890 270 22415ft 370kts
07-Nov-19 20:06 39.975694 -105.642657 270 22450ft 364kts
07-Nov-19 20:07 39.972781 -105.774651 271 22476ft 362kts
07-Nov-19 20:08 39.972476 -105.897369 277 22485ft 325kts
07-Nov-19 20:09 39.979524 -106.014281 277 22489ft 308kts
07-Nov-19 20:10 39.985732 -106.116439 277 22470ft 261kts
07-Nov-19 20:11 39.990779 -106.211160 277 21502ft 263kts
07-Nov-19 20:12 39.995633 -106.305815 277 20186ft 258kts
07-Nov-19 20:13 40.000365 -106.397915 276 18619ft 252kts
07-Nov-19 20:14 39.967248 -106.466849 188 16848ft 288kts
07-Nov-19 20:15 39.892200 -106.488552 204 15221ft 273kts
07-Nov-19 20:16 39.822164 -106.518541 204 14087ft 251kts
07-Nov-19 20:17 39.760138 -106.544561 204 13527ft 214kts
07-Nov-19 20:18 39.702337 -106.570411 211 12928ft 231kts
07-Nov-19 20:19 39.678776 -106.632473 263 11866ft 190kts
07-Nov-19 20:20 39.670194 -106.696905 263 10506ft 167kts
07-Nov-19 20:21 39.662597 -106.755100 256 9623ft 175kts
07-Nov-19 20:22 39.654405 -106.818545 259 8197ft 170kts
07-Nov-19 20:22 39.647697 -106.871099 261 7201ft 175kts
07-Nov-19 20:24 39.641518 -106.927437 247 6523ft 34kts
07-Nov-19 20:25 39.640968 -106.922266 82 6523ft 32kts
07-Nov-19 20:25 39.640990 -106.915534 172 6523ft 8kts
07-Nov-19 20:27 39.640604 -106.915466 170 6523ft 0kts
07-Nov-19 20:28 39.640604 -106.915466 170 6523ft 0kts
07-Nov-19 20:28 39.640604 -106.915466 170 6523ft 0kts
07-Nov-19 20:29 39.640604 -106.915466 170 6523ft 0kts
07-Nov-19 20:31 39.640604 -106.915466 170 6523ft 0kts

Navigation Log

Ident Type
Flight plan parsing failed, navigation log unavailable